sensor_id;sensor_type;location;lat;lon;timestamp;pressure;altitude;pressure_sealevel;temperature;humidity
24045;BME280;26257;49.442;8.422;2023-05-08T00:01:24;100860.03;;;19.63;100.00
24045;BME280;26257;49.442;8.422;2023-05-08T00:03:51;100850.66;;;19.82;100.00
24045;BME280;26257;49.442;8.422;2023-05-08T00:06:17;100846.97;;;19.89;100.00
24045;BME280;26257;49.442;8.422;2023-05-08T00:08:43;100841.97;;;19.71;100.00
24045;BME280;26257;49.442;8.422;2023-05-08T00:11:09;100853.06;;;19.53;100.00
24045;BME280;26257;49.442;8.422;2023-05-08T00:13:34;100848.00;;;19.38;100.00
24045;BME280;26257;49.442;8.422;2023-05-08T00:16:00;100854.28;;;19.35;100.00
24045;BME280;26257;49.442;8.422;2023-05-08T00:18:25;100849.16;;;19.23;100.00
24045;BME280;26257;49.442;8.422;2023-05-08T00:20:51;100843.72;;;19.28;100.00
24045;BME280;26257;49.442;8.422;2023-05-08T00:23:17;100843.72;;;19.28;100.00
24045;BME280;26257;49.442;8.422;2023-05-08T00:25:43;100838.13;;;19.41;100.00
24045;BME280;26257;49.442;8.422;2023-05-08T00:28:09;100843.50;;;19.40;100.00
24045;BME280;26257;49.442;8.422;2023-05-08T00:30:35;100832.81;;;19.38;100.00
24045;BME280;26257;49.442;8.422;2023-05-08T00:33:02;100837.31;;;19.36;100.00
24045;BME280;26257;49.442;8.422;2023-05-08T00:35:29;100836.91;;;19.56;100.00
24045;BME280;26257;49.442;8.422;2023-05-08T00:37:55;100837.31;;;19.36;100.00
24045;BME280;26257;49.442;8.422;2023-05-08T00:40:22;100837.63;;;19.20;100.00
24045;BME280;26257;49.442;8.422;2023-05-08T00:42:49;100848.16;;;19.29;100.00
24045;BME280;26257;49.442;8.422;2023-05-08T00:45:16;100835.34;;;19.46;100.00
24045;BME280;26257;49.442;8.422;2023-05-08T00:47:43;100839.50;;;19.62;100.00
24045;BME280;26257;49.442;8.422;2023-05-08T00:50:12;100846.22;;;19.37;100.00
24045;BME280;26257;49.442;8.422;2023-05-08T00:52:38;100838.59;;;19.61;100.00
24045;BME280;26257;49.442;8.422;2023-05-08T00:55:05;100835.91;;;19.61;100.00
24045;BME280;26257;49.442;8.422;2023-05-08T00:57:31;100835.81;;;19.20;100.00
24045;BME280;26257;49.442;8.422;2023-05-08T01:00:01;100841.06;;;19.26;100.00
24045;BME280;26257;49.442;8.422;2023-05-08T01:02:28;100836.13;;;19.51;100.00
24045;BME280;26257;49.442;8.422;2023-05-08T01:04:56;100845.75;;;19.62;100.00
24045;BME280;26257;49.442;8.422;2023-05-08T01:07:21;100843.91;;;19.64;100.00
24045;BME280;26257;49.442;8.422;2023-05-08T01:09:48;100850.94;;;19.70;100.00
24045;BME280;26257;49.442;8.422;2023-05-08T01:12:18;100850.38;;;19.53;100.00
24045;BME280;26257;49.442;8.422;2023-05-08T01:17:37;100855.63;;;19.60;100.00
24045;BME280;26257;49.442;8.422;2023-05-08T01:25:58;100850.56;;;19.44;100.00
24045;BME280;26257;49.442;8.422;2023-05-08T01:31:14;100852.94;;;19.13;100.00
24045;BME280;26257;49.442;8.422;2023-05-08T01:45:03;100864.09;;;19.38;100.00
24045;BME280;26257;49.442;8.422;2023-05-08T01:47:32;100867.56;;;19.43;100.00
24045;BME280;26257;49.442;8.422;2023-05-08T01:50:13;100854.09;;;19.47;100.00
24045;BME280;26257;49.442;8.422;2023-05-08T01:52:57;100858.31;;;19.59;100.00
24045;BME280;26257;49.442;8.422;2023-05-08T01:55:34;100851.06;;;19.64;100.00
24045;BME280;26257;49.442;8.422;2023-05-08T01:58:03;100849.22;;;19.66;100.00
24045;BME280;26257;49.442;8.422;2023-05-08T02:00:31;100849.31;;;19.63;100.00
24045;BME280;26257;49.442;8.422;2023-05-08T02:02:57;100858.63;;;19.44;100.00
24045;BME280;26257;49.442;8.422;2023-05-08T02:05:24;100857.00;;;19.34;100.00
24045;BME280;26257;49.442;8.422;2023-05-08T02:07:51;100863.09;;;19.43;100.00
24045;BME280;26257;49.442;8.422;2023-05-08T02:10:18;100873.72;;;19.48;100.00
24045;BME280;26257;49.442;8.422;2023-05-08T02:12:45;100862.19;;;19.43;100.00
24045;BME280;26257;49.442;8.422;2023-05-08T02:15:12;100853.38;;;19.35;100.00
24045;BME280;26257;49.442;8.422;2023-05-08T02:17:39;100856.94;;;19.37;100.00
24045;BME280;26257;49.442;8.422;2023-05-08T02:20:06;100861.25;;;19.45;100.00
24045;BME280;26257;49.442;8.422;2023-05-08T02:22:40;100857.28;;;19.19;100.00
24045;BME280;26257;49.442;8.422;2023-05-08T02:25:08;100855.22;;;19.33;100.00
24045;BME280;26257;49.442;8.422;2023-05-08T02:27:37;100855.41;;;19.24;100.00
24045;BME280;26257;49.442;8.422;2023-05-08T02:30:03;100854.94;;;19.48;100.00
24045;BME280;26257;49.442;8.422;2023-05-08T02:32:29;100858.72;;;19.39;100.00
24045;BME280;26257;49.442;8.422;2023-05-08T02:34:55;100856.63;;;19.55;100.00
24045;BME280;26257;49.442;8.422;2023-05-08T02:37:22;100864.94;;;19.40;100.00
24045;BME280;26257;49.442;8.422;2023-05-08T02:39:50;100871.63;;;19.16;100.00
24045;BME280;26257;49.442;8.422;2023-05-08T02:42:18;100875.16;;;19.17;100.00
24045;BME280;26257;49.442;8.422;2023-05-08T02:44:43;100874.31;;;19.16;100.00
24045;BME280;26257;49.442;8.422;2023-05-08T02:52:18;100882.44;;;19.08;100.00
24045;BME280;26257;49.442;8.422;2023-05-08T02:55:00;100887.00;;;19.03;100.00
24045;BME280;26257;49.442;8.422;2023-05-08T02:57:52;100884.41;;;19.00;100.00
24045;BME280;26257;49.442;8.422;2023-05-08T03:00:22;100880.81;;;19.01;100.00
24045;BME280;26257;49.442;8.422;2023-05-08T03:03:09;100884.47;;;18.97;100.00
24045;BME280;26257;49.442;8.422;2023-05-08T03:05:37;100890.31;;;18.67;100.00
24045;BME280;26257;49.442;8.422;2023-05-08T03:08:10;100883.88;;;18.77;100.00
24045;BME280;26257;49.442;8.422;2023-05-08T03:10:39;100881.34;;;18.71;100.00
24045;BME280;26257;49.442;8.422;2023-05-08T03:13:08;100880.41;;;18.74;100.00
24045;BME280;26257;49.442;8.422;2023-05-08T03:15:41;100879.41;;;18.79;100.00
24045;BME280;26257;49.442;8.422;2023-05-08T03:18:13;100883.84;;;18.80;100.00
24045;BME280;26257;49.442;8.422;2023-05-08T03:20:43;100884.41;;;19.00;100.00
24045;BME280;26257;49.442;8.422;2023-05-08T03:23:10;100876.53;;;18.91;100.00
24045;BME280;26257;49.442;8.422;2023-05-08T03:25:39;100883.03;;;18.75;100.00
24045;BME280;26257;49.442;8.422;2023-05-08T03:28:06;100882.16;;;18.75;100.00
24045;BME280;26257;49.442;8.422;2023-05-08T03:30:36;100891.81;;;18.85;100.00
24045;BME280;26257;49.442;8.422;2023-05-08T03:33:02;100882.91;;;18.84;100.00
24045;BME280;26257;49.442;8.422;2023-05-08T03:35:29;100886.66;;;18.74;100.00
24045;BME280;26257;49.442;8.422;2023-05-08T03:37:55;100882.91;;;18.83;100.00
24045;BME280;26257;49.442;8.422;2023-05-08T03:40:21;100889.56;;;18.58;100.00
24045;BME280;26257;49.442;8.422;2023-05-08T03:42:47;100883.81;;;18.24;100.00
24045;BME280;26257;49.442;8.422;2023-05-08T03:45:15;100894.47;;;18.27;100.00
24045;BME280;26257;49.442;8.422;2023-05-08T03:47:42;100888.31;;;18.20;100.00
24045;BME280;26257;49.442;8.422;2023-05-08T03:50:08;100890.00;;;18.27;100.00
24045;BME280;26257;49.442;8.422;2023-05-08T03:52:33;100888.06;;;18.37;100.00
24045;BME280;26257;49.442;8.422;2023-05-08T03:54:59;100879.91;;;18.46;100.00
24045;BME280;26257;49.442;8.422;2023-05-08T03:57:30;100883.19;;;18.66;100.00
24045;BME280;26257;49.442;8.422;2023-05-08T04:00:08;100886.56;;;18.77;100.00
24045;BME280;26257;49.442;8.422;2023-05-08T04:03:17;100882.47;;;18.55;100.00
24045;BME280;26257;49.442;8.422;2023-05-08T04:05:51;100889.16;;;18.85;100.00
24045;BME280;26257;49.442;8.422;2023-05-08T04:08:28;100879.25;;;18.88;100.00
24045;BME280;26257;49.442;8.422;2023-05-08T04:11:11;100885.16;;;19.07;100.00
24045;BME280;26257;49.442;8.422;2023-05-08T04:13:46;100880.84;;;19.00;100.00
24045;BME280;26257;49.442;8.422;2023-05-08T04:16:19;100876.75;;;18.79;100.00
24045;BME280;26257;49.442;8.422;2023-05-08T04:18:46;100883.03;;;18.75;100.00
24045;BME280;26257;49.442;8.422;2023-05-08T04:21:18;100893.75;;;18.75;100.00
24045;BME280;26257;49.442;8.422;2023-05-08T04:23:47;100899.63;;;18.97;100.00
24045;BME280;26257;49.442;8.422;2023-05-08T04:26:15;100897.81;;;18.99;100.00
24045;BME280;26257;49.442;8.422;2023-05-08T04:28:41;100898.75;;;18.40;100.00
24045;BME280;26257;49.442;8.422;2023-05-08T04:31:07;100897.53;;;18.62;100.00
24045;BME280;26257;49.442;8.422;2023-05-08T04:33:34;100901.50;;;18.92;100.00
24045;BME280;26257;49.442;8.422;2023-05-08T04:36:02;100904.16;;;18.93;100.00
24045;BME280;26257;49.442;8.422;2023-05-08T04:38:28;100905.00;;;18.97;100.00
24045;BME280;26257;49.442;8.422;2023-05-08T04:40:54;100895.03;;;19.03;100.00
24045;BME280;26257;49.442;8.422;2023-05-08T04:43:19;100897.94;;;18.91;100.00
24045;BME280;26257;49.442;8.422;2023-05-08T04:45:45;100898.84;;;18.92;100.00
24045;BME280;26257;49.442;8.422;2023-05-08T04:48:10;100905.22;;;18.83;100.00
24045;BME280;26257;49.442;8.422;2023-05-08T04:50:36;100905.38;;;18.73;100.00
24045;BME280;26257;49.442;8.422;2023-05-08T04:53:01;100912.34;;;18.83;100.00
24045;BME280;26257;49.442;8.422;2023-05-08T04:55:27;100913.25;;;18.83;100.00
24045;BME280;26257;49.442;8.422;2023-05-08T04:57:52;100914.72;;;19.02;100.00
24045;BME280;26257;49.442;8.422;2023-05-08T05:00:18;100910.34;;;18.97;100.00
24045;BME280;26257;49.442;8.422;2023-05-08T05:02:43;100911.66;;;18.70;100.00
24045;BME280;26257;49.442;8.422;2023-05-08T05:05:09;100926.19;;;18.54;100.00
24045;BME280;26257;49.442;8.422;2023-05-08T05:07:35;100922.56;;;18.58;100.00
24045;BME280;26257;49.442;8.422;2023-05-08T05:10:01;100919.84;;;18.61;100.00
24045;BME280;26257;49.442;8.422;2023-05-08T05:12:26;100929.06;;;18.40;100.00
24045;BME280;26257;49.442;8.422;2023-05-08T05:14:52;100936.13;;;18.47;100.00
24045;BME280;26257;49.442;8.422;2023-05-08T05:17:17;100939.41;;;18.66;100.00
24045;BME280;26257;49.442;8.422;2023-05-08T05:19:43;100929.88;;;18.47;100.00
24045;BME280;26257;49.442;8.422;2023-05-08T05:22:08;100938.59;;;18.61;100.00
24045;BME280;26257;49.442;8.422;2023-05-08T05:24:33;100937.41;;;18.79;100.00
24045;BME280;26257;49.442;8.422;2023-05-08T05:27:04;100929.03;;;18.98;100.00
24045;BME280;26257;49.442;8.422;2023-05-08T05:29:29;100934.91;;;18.68;100.00
24045;BME280;26257;49.442;8.422;2023-05-08T05:31:54;100936.16;;;18.43;100.00
24045;BME280;26257;49.442;8.422;2023-05-08T05:34:20;100941.00;;;18.78;100.00
24045;BME280;26257;49.442;8.422;2023-05-08T05:36:45;100939.41;;;18.65;100.00
24045;BME280;26257;49.442;8.422;2023-05-08T05:39:11;100946.84;;;18.43;100.00
24045;BME280;26257;49.442;8.422;2023-05-08T05:41:37;100953.84;;;18.55;100.00
24045;BME280;26257;49.442;8.422;2023-05-08T05:44:02;100947.09;;;18.87;100.00
24045;BME280;26257;49.442;8.422;2023-05-08T05:46:28;100937.75;;;19.13;100.00
24045;BME280;26257;49.442;8.422;2023-05-08T05:48:59;100944.47;;;18.84;100.00
24045;BME280;26257;49.442;8.422;2023-05-08T05:51:25;100942.38;;;19.03;100.00
24045;BME280;26257;49.442;8.422;2023-05-08T05:53:52;100945.78;;;19.11;100.00
24045;BME280;26257;49.442;8.422;2023-05-08T05:56:17;100944.25;;;18.98;100.00
24045;BME280;26257;49.442;8.422;2023-05-08T05:58:43;100949.28;;;18.61;100.00
24045;BME280;26257;49.442;8.422;2023-05-08T06:01:12;100955.59;;;18.59;100.00
24045;BME280;26257;49.442;8.422;2023-05-08T06:03:38;100948.72;;;18.97;100.00
24045;BME280;26257;49.442;8.422;2023-05-08T06:06:03;100949.34;;;19.11;100.00
24045;BME280;26257;49.442;8.422;2023-05-08T06:08:29;100948.38;;;19.19;100.00
24045;BME280;26257;49.442;8.422;2023-05-08T06:10:54;100943.19;;;19.06;100.00
24045;BME280;26257;49.442;8.422;2023-05-08T06:13:20;100949.00;;;18.79;100.00
24045;BME280;26257;49.442;8.422;2023-05-08T06:15:46;100952.50;;;18.84;100.00
24045;BME280;26257;49.442;8.422;2023-05-08T06:18:11;100948.81;;;18.91;100.00
24045;BME280;26257;49.442;8.422;2023-05-08T06:20:37;100952.88;;;19.15;100.00
24045;BME280;26257;49.442;8.422;2023-05-08T06:23:03;100960.78;;;19.23;100.00
24045;BME280;26257;49.442;8.422;2023-05-08T06:25:29;100953.88;;;19.09;100.00
24045;BME280;26257;49.442;8.422;2023-05-08T06:27:55;100955.34;;;18.74;100.00
24045;BME280;26257;49.442;8.422;2023-05-08T06:30:20;100959.81;;;18.73;100.00
24045;BME280;26257;49.442;8.422;2023-05-08T06:32:46;100959.38;;;19.00;100.00
24045;BME280;26257;49.442;8.422;2023-05-08T06:35:11;100955.50;;;19.17;100.00
24045;BME280;26257;49.442;8.422;2023-05-08T06:37:37;100955.72;;;19.04;100.00
24045;BME280;26257;49.442;8.422;2023-05-08T06:40:03;100954.28;;;18.82;100.00
24045;BME280;26257;49.442;8.422;2023-05-08T06:42:28;100952.94;;;18.54;100.00
24045;BME280;26257;49.442;8.422;2023-05-08T06:44:54;100954.84;;;18.47;100.00
24045;BME280;26257;49.442;8.422;2023-05-08T06:47:19;100967.03;;;18.68;100.00
24045;BME280;26257;49.442;8.422;2023-05-08T06:49:45;100965.94;;;18.81;100.00
24045;BME280;26257;49.442;8.422;2023-05-08T06:52:10;100961.31;;;18.92;100.00
24045;BME280;26257;49.442;8.422;2023-05-08T06:54:36;100967.44;;;18.99;100.00
24045;BME280;26257;49.442;8.422;2023-05-08T06:57:01;100959.81;;;18.73;100.00
24045;BME280;26257;49.442;8.422;2023-05-08T06:59:26;100961.13;;;19.01;100.00
24045;BME280;26257;49.442;8.422;2023-05-08T07:01:52;100961.47;;;18.80;100.00
24045;BME280;26257;49.442;8.422;2023-05-08T07:04:17;100975.78;;;18.79;100.00
24045;BME280;26257;49.442;8.422;2023-05-08T07:06:43;100969.34;;;18.91;100.00
24045;BME280;26257;49.442;8.422;2023-05-08T07:09:08;100968.53;;;18.87;100.00
24045;BME280;26257;49.442;8.422;2023-05-08T07:11:34;100963.53;;;18.63;100.00
24045;BME280;26257;49.442;8.422;2023-05-08T07:14:00;100975.66;;;18.21;100.00
24045;BME280;26257;49.442;8.422;2023-05-08T07:16:25;100968.81;;;18.69;100.00
24045;BME280;26257;49.442;8.422;2023-05-08T07:18:50;100971.41;;;18.74;100.00
24045;BME280;26257;49.442;8.422;2023-05-08T07:21:16;100971.94;;;18.97;100.00
24045;BME280;26257;49.442;8.422;2023-05-08T07:23:44;100974.56;;;19.00;100.00
24045;BME280;26257;49.442;8.422;2023-05-08T07:26:09;100971.75;;;18.49;100.00
24045;BME280;26257;49.442;8.422;2023-05-08T07:28:35;100978.34;;;18.87;100.00
24045;BME280;26257;49.442;8.422;2023-05-08T07:31:03;100972.25;;;18.76;100.00
24045;BME280;26257;49.442;8.422;2023-05-08T07:33:31;100972.47;;;19.19;100.00
24045;BME280;26257;49.442;8.422;2023-05-08T07:35:58;100972.25;;;19.31;100.00
24045;BME280;26257;49.442;8.422;2023-05-08T07:38:23;100958.66;;;19.44;100.00
24045;BME280;26257;49.442;8.422;2023-05-08T07:40:49;100968.94;;;19.67;100.00
24045;BME280;26257;49.442;8.422;2023-05-08T07:43:15;100958.81;;;19.83;100.00
24045;BME280;26257;49.442;8.422;2023-05-08T07:45:41;100960.03;;;19.65;100.00
24045;BME280;26257;49.442;8.422;2023-05-08T07:48:06;100967.34;;;19.57;100.00
24045;BME280;26257;49.442;8.422;2023-05-08T07:50:32;100964.31;;;19.73;100.00
24045;BME280;26257;49.442;8.422;2023-05-08T07:52:58;100961.38;;;19.87;100.00
24045;BME280;26257;49.442;8.422;2023-05-08T07:55:24;100962.13;;;19.95;100.00
24045;BME280;26257;49.442;8.422;2023-05-08T07:57:49;100968.09;;;19.65;100.00
24045;BME280;26257;49.442;8.422;2023-05-08T08:00:15;100964.97;;;19.88;100.00
24045;BME280;26257;49.442;8.422;2023-05-08T08:02:41;100969.78;;;20.13;100.00
24045;BME280;26257;49.442;8.422;2023-05-08T08:05:07;100956.59;;;20.04;100.00
24045;BME280;26257;49.442;8.422;2023-05-08T08:07:33;100963.16;;;19.88;100.00
24045;BME280;26257;49.442;8.422;2023-05-08T08:09:59;100968.47;;;19.91;100.00
24045;BME280;26257;49.442;8.422;2023-05-08T08:12:25;100979.28;;;19.39;100.00
24045;BME280;26257;49.442;8.422;2023-05-08T08:14:50;100989.81;;;19.48;100.00
24045;BME280;26257;49.442;8.422;2023-05-08T08:17:16;100982.50;;;19.59;100.00
24045;BME280;26257;49.442;8.422;2023-05-08T08:19:41;100970.94;;;19.56;100.00
24045;BME280;26257;49.442;8.422;2023-05-08T08:22:07;100973.47;;;19.63;100.00
24045;BME280;26257;49.442;8.422;2023-05-08T08:24:32;100981.16;;;19.83;100.00
24045;BME280;26257;49.442;8.422;2023-05-08T08:26:58;100970.88;;;20.05;100.00
24045;BME280;26257;49.442;8.422;2023-05-08T08:29:24;100969.00;;;20.10;100.00
24045;BME280;26257;49.442;8.422;2023-05-08T08:31:49;100966.75;;;20.31;100.00
24045;BME280;26257;49.442;8.422;2023-05-08T09:15:41;100986.59;;;19.77;100.00
24045;BME280;26257;49.442;8.422;2023-05-08T09:18:06;100985.81;;;19.72;100.00
24045;BME280;26257;49.442;8.422;2023-05-08T09:20:32;100985.66;;;19.80;100.00
24045;BME280;26257;49.442;8.422;2023-05-08T09:22:59;100991.91;;;19.80;100.00
24045;BME280;26257;49.442;8.422;2023-05-08T09:25:40;100987.81;;;19.61;100.00
24045;BME280;26257;49.442;8.422;2023-05-08T09:28:25;100992.03;;;19.24;100.00
24045;BME280;26257;49.442;8.422;2023-05-08T09:30:56;100994.16;;;19.57;100.00
24045;BME280;26257;49.442;8.422;2023-05-08T09:33:23;100996.88;;;19.54;100.00
24045;BME280;26257;49.442;8.422;2023-05-08T09:35:50;100997.56;;;19.11;100.00
24045;BME280;26257;49.442;8.422;2023-05-08T09:38:35;100999.84;;;19.39;100.00
24045;BME280;26257;49.442;8.422;2023-05-08T09:41:13;101013.25;;;19.37;100.00
24045;BME280;26257;49.442;8.422;2023-05-08T09:43:40;101010.00;;;19.69;100.00
24045;BME280;26257;49.442;8.422;2023-05-08T09:46:25;101021.59;;;19.18;100.00
24045;BME280;26257;49.442;8.422;2023-05-08T09:48:59;101023.19;;;19.28;100.00
24045;BME280;26257;49.442;8.422;2023-05-08T09:51:28;101016.31;;;19.11;100.00
24045;BME280;26257;49.442;8.422;2023-05-08T09:53:55;101017.34;;;19.58;100.00
24045;BME280;26257;49.442;8.422;2023-05-08T09:56:35;101019.03;;;19.65;100.00
24045;BME280;26257;49.442;8.422;2023-05-08T09:59:03;101004.91;;;19.54;100.00
24045;BME280;26257;49.442;8.422;2023-05-08T10:01:35;101020.00;;;19.59;100.00
24045;BME280;26257;49.442;8.422;2023-05-08T10:04:01;101012.63;;;19.72;100.00
24045;BME280;26257;49.442;8.422;2023-05-08T10:06:28;101021.50;;;19.24;100.00
24045;BME280;26257;49.442;8.422;2023-05-08T10:09:10;101020.84;;;19.06;100.00
24045;BME280;26257;49.442;8.422;2023-05-08T10:11:40;101027.22;;;18.99;100.00
24045;BME280;26257;49.442;8.422;2023-05-08T10:14:07;101019.28;;;18.93;100.00
24045;BME280;26257;49.442;8.422;2023-05-08T10:16:40;101023.03;;;19.40;100.00
24045;BME280;26257;49.442;8.422;2023-05-08T10:19:12;101011.31;;;19.94;100.00
24045;BME280;26257;49.442;8.422;2023-05-08T10:21:41;101009.06;;;20.17;100.00
24045;BME280;26257;49.442;8.422;2023-05-08T10:24:33;101001.91;;;20.16;100.00
24045;BME280;26257;49.442;8.422;2023-05-08T10:27:23;101011.19;;;20.00;100.00
24045;BME280;26257;49.442;8.422;2023-05-08T10:29:55;101020.63;;;19.75;100.00
24045;BME280;26257;49.442;8.422;2023-05-08T10:32:26;101007.31;;;19.70;100.00
24045;BME280;26257;49.442;8.422;2023-05-08T10:34:58;101012.81;;;19.63;100.00
24045;BME280;26257;49.442;8.422;2023-05-08T10:37:28;101006.56;;;19.61;100.00
24045;BME280;26257;49.442;8.422;2023-05-08T10:39:54;101016.84;;;19.85;100.00
24045;BME280;26257;49.442;8.422;2023-05-08T10:42:20;101003.75;;;19.68;100.00
24045;BME280;26257;49.442;8.422;2023-05-08T10:44:46;101005.59;;;20.12;100.00
24045;BME280;26257;49.442;8.422;2023-05-08T10:52:50;100987.63;;;20.59;100.00
24045;BME280;26257;49.442;8.422;2023-05-08T11:03:19;100972.84;;;20.40;100.00
24045;BME280;26257;49.442;8.422;2023-05-08T11:05:46;100983.88;;;20.67;100.00
24045;BME280;26257;49.442;8.422;2023-05-08T11:08:20;100979.00;;;21.21;100.00
24045;BME280;26257;49.442;8.422;2023-05-08T11:13:37;100973.75;;;21.15;100.00
24045;BME280;26257;49.442;8.422;2023-05-08T11:16:03;100979.63;;;21.32;100.00
24045;BME280;26257;49.442;8.422;2023-05-08T11:18:34;100965.78;;;21.12;100.00
24045;BME280;26257;49.442;8.422;2023-05-08T11:21:02;100965.56;;;21.55;100.00
24045;BME280;26257;49.442;8.422;2023-05-08T11:23:32;100957.53;;;21.53;100.00
24045;BME280;26257;49.442;8.422;2023-05-08T11:26:05;100968.47;;;20.36;100.00
24045;BME280;26257;49.442;8.422;2023-05-08T11:28:54;100965.97;;;21.03;100.00
24045;BME280;26257;49.442;8.422;2023-05-08T11:31:20;100967.84;;;21.01;100.00
24045;BME280;26257;49.442;8.422;2023-05-08T11:33:49;100962.13;;;21.16;100.00
24045;BME280;26257;49.442;8.422;2023-05-08T11:36:16;100958.47;;;21.17;100.00
24045;BME280;26257;49.442;8.422;2023-05-08T11:39:04;100946.31;;;21.72;100.00
24045;BME280;26257;49.442;8.422;2023-05-08T11:41:31;100947.06;;;21.77;100.00
24045;BME280;26257;49.442;8.422;2023-05-08T11:46:52;100940.09;;;22.00;100.00
24045;BME280;26257;49.442;8.422;2023-05-08T11:49:24;100947.47;;;21.94;100.00
24045;BME280;26257;49.442;8.422;2023-05-08T11:51:51;100943.34;;;22.13;100.00
24045;BME280;26257;49.442;8.422;2023-05-08T11:54:22;100940.84;;;22.36;100.00
24045;BME280;26257;49.442;8.422;2023-05-08T11:56:50;100948.22;;;21.99;100.00
24045;BME280;26257;49.442;8.422;2023-05-08T11:59:17;100949.56;;;21.50;100.00
24045;BME280;26257;49.442;8.422;2023-05-08T12:01:43;100958.63;;;21.46;100.00
24045;BME280;26257;49.442;8.422;2023-05-08T12:04:10;100954.44;;;22.01;100.00
24045;BME280;26257;49.442;8.422;2023-05-08T12:06:38;100956.38;;;21.96;100.00
24045;BME280;26257;49.442;8.422;2023-05-08T12:09:15;100949.81;;;22.35;100.00
24045;BME280;26257;49.442;8.422;2023-05-08T12:11:42;100947.22;;;22.03;100.00
24045;BME280;26257;49.442;8.422;2023-05-08T12:14:11;100954.47;;;22.30;100.00
24045;BME280;26257;49.442;8.422;2023-05-08T12:16:38;100945.91;;;22.16;100.00
24045;BME280;26257;49.442;8.422;2023-05-08T12:19:09;100950.53;;;22.42;100.00
24045;BME280;26257;49.442;8.422;2023-05-08T12:21:35;100953.56;;;21.68;100.00
24045;BME280;26257;49.442;8.422;2023-05-08T12:24:04;100955.69;;;22.20;100.00
24045;BME280;26257;49.442;8.422;2023-05-08T12:26:34;100949.00;;;22.90;100.00
24045;BME280;26257;49.442;8.422;2023-05-08T12:29:00;100947.69;;;22.46;100.00
24045;BME280;26257;49.442;8.422;2023-05-08T12:31:25;100936.34;;;23.20;100.00
24045;BME280;26257;49.442;8.422;2023-05-08T12:33:51;100928.28;;;23.46;100.00
24045;BME280;26257;49.442;8.422;2023-05-08T12:36:19;100933.97;;;23.86;100.00
24045;BME280;26257;49.442;8.422;2023-05-08T12:38:45;100926.28;;;24.24;100.00
24045;BME280;26257;49.442;8.422;2023-05-08T12:41:10;100932.09;;;23.39;100.00
24045;BME280;26257;49.442;8.422;2023-05-08T12:43:36;100925.00;;;24.11;100.00
24045;BME280;26257;49.442;8.422;2023-05-08T12:46:03;100917.09;;;24.05;100.00
24045;BME280;26257;49.442;8.422;2023-05-08T12:48:29;100915.22;;;24.07;100.00
24045;BME280;26257;49.442;8.422;2023-05-08T12:51:02;100911.78;;;24.26;100.00
24045;BME280;26257;49.442;8.422;2023-05-08T12:53:32;100912.03;;;25.08;100.00
24045;BME280;26257;49.442;8.422;2023-05-08T12:56:00;100908.28;;;25.12;100.00
24045;BME280;26257;49.442;8.422;2023-05-08T12:58:28;100903.31;;;25.24;100.00
24045;BME280;26257;49.442;8.422;2023-05-08T13:01:03;100900.84;;;25.38;100.00
24045;BME280;26257;49.442;8.422;2023-05-08T13:03:31;100905.78;;;24.41;100.00
24045;BME280;26257;49.442;8.422;2023-05-08T13:05:58;100902.16;;;24.42;100.00
24045;BME280;26257;49.442;8.422;2023-05-08T13:08:32;100910.56;;;23.62;100.00
24045;BME280;26257;49.442;8.422;2023-05-08T13:10:58;100902.91;;;24.68;100.00
24045;BME280;26257;49.442;8.422;2023-05-08T13:13:26;100889.38;;;25.33;100.00
24045;BME280;26257;49.442;8.422;2023-05-08T13:15:53;100887.19;;;25.41;100.00
24045;BME280;26257;49.442;8.422;2023-05-08T13:18:20;100872.81;;;25.81;100.00
24045;BME280;26257;49.442;8.422;2023-05-08T13:20:46;100876.78;;;26.85;93.50
24045;BME280;26257;49.442;8.422;2023-05-08T13:23:11;100882.53;;;26.79;88.50
24045;BME280;26257;49.442;8.422;2023-05-08T13:25:38;100877.66;;;26.86;88.50
24045;BME280;26257;49.442;8.422;2023-05-08T13:28:05;100881.50;;;26.82;86.85
24045;BME280;26257;49.442;8.422;2023-05-08T13:30:30;100881.19;;;26.69;87.81
24045;BME280;26257;49.442;8.422;2023-05-08T13:32:56;100876.22;;;26.04;91.70
24045;BME280;26257;49.442;8.422;2023-05-08T13:35:22;100875.19;;;26.25;93.31
24045;BME280;26257;49.442;8.422;2023-05-08T13:37:48;100876.03;;;25.89;95.92
24045;BME280;26257;49.442;8.422;2023-05-08T13:40:14;100882.44;;;25.67;99.55
24045;BME280;26257;49.442;8.422;2023-05-08T13:42:40;100874.22;;;25.69;95.86
24045;BME280;26257;49.442;8.422;2023-05-08T13:45:06;100883.66;;;25.18;100.00
24045;BME280;26257;49.442;8.422;2023-05-08T13:47:33;100883.75;;;24.95;100.00
24045;BME280;26257;49.442;8.422;2023-05-08T13:49:59;100879.72;;;25.47;100.00
24045;BME280;26257;49.442;8.422;2023-05-08T13:52:25;100878.34;;;25.37;100.00
24045;BME280;26257;49.442;8.422;2023-05-08T13:54:54;100874.50;;;25.23;100.00
24045;BME280;26257;49.442;8.422;2023-05-08T13:57:20;100861.50;;;25.71;99.95
24045;BME280;26257;49.442;8.422;2023-05-08T13:59:46;100866.50;;;25.80;99.24
24045;BME280;26257;49.442;8.422;2023-05-08T14:02:11;100870.97;;;25.41;100.00
24045;BME280;26257;49.442;8.422;2023-05-08T14:04:38;100862.53;;;25.48;100.00
24045;BME280;26257;49.442;8.422;2023-05-08T14:07:05;100864.69;;;25.40;100.00
24045;BME280;26257;49.442;8.422;2023-05-08T14:09:33;100875.16;;;25.07;100.00
24045;BME280;26257;49.442;8.422;2023-05-08T14:11:58;100866.75;;;24.93;100.00
24045;BME280;26257;49.442;8.422;2023-05-08T14:14:24;100862.56;;;25.06;100.00